sensor_id;sensor_type;location;lat;lon;timestamp;P1;durP1;ratioP1;P2;durP2;ratioP2
64851;SDS011;56050;55.558;-4.644;2022-09-21T00:01:22;7.65;;;3.55;;
64851;SDS011;56050;55.558;-4.644;2022-09-21T00:03:53;6.40;;;3.17;;
64851;SDS011;56050;55.558;-4.644;2022-09-21T00:06:21;8.60;;;3.30;;
64851;SDS011;56050;55.558;-4.644;2022-09-21T00:08:48;9.77;;;4.53;;
64851;SDS011;56050;55.558;-4.644;2022-09-21T00:11:18;7.82;;;3.17;;
64851;SDS011;56050;55.558;-4.644;2022-09-21T00:13:55;9.38;;;4.18;;
64851;SDS011;56050;55.558;-4.644;2022-09-21T00:16:28;9.07;;;3.47;;
64851;SDS011;56050;55.558;-4.644;2022-09-21T00:18:54;8.57;;;3.38;;
64851;SDS011;56050;55.558;-4.644;2022-09-21T00:21:20;8.90;;;4.40;;
64851;SDS011;56050;55.558;-4.644;2022-09-21T00:23:45;8.98;;;3.45;;
64851;SDS011;56050;55.558;-4.644;2022-09-21T00:26:15;9.70;;;3.38;;
64851;SDS011;56050;55.558;-4.644;2022-09-21T00:28:42;8.38;;;3.33;;
64851;SDS011;56050;55.558;-4.644;2022-09-21T00:31:09;8.95;;;5.45;;
64851;SDS011;56050;55.558;-4.644;2022-09-21T00:33:36;9.68;;;3.58;;
64851;SDS011;56050;55.558;-4.644;2022-09-21T00:36:07;11.15;;;4.30;;
64851;SDS011;56050;55.558;-4.644;2022-09-21T00:38:34;8.57;;;3.95;;
64851;SDS011;56050;55.558;-4.644;2022-09-21T00:41:01;9.30;;;3.78;;
64851;SDS011;56050;55.558;-4.644;2022-09-21T00:43:27;7.47;;;4.03;;
64851;SDS011;56050;55.558;-4.644;2022-09-21T00:45:56;7.97;;;3.47;;
64851;SDS011;56050;55.558;-4.644;2022-09-21T00:48:27;8.18;;;3.17;;
64851;SDS011;56050;55.558;-4.644;2022-09-21T00:50:53;11.45;;;3.85;;
64851;SDS011;56050;55.558;-4.644;2022-09-21T00:53:21;15.38;;;4.22;;
64851;SDS011;56050;55.558;-4.644;2022-09-21T00:55:47;8.93;;;3.42;;
64851;SDS011;56050;55.558;-4.644;2022-09-21T00:58:17;9.35;;;3.75;;
64851;SDS011;56050;55.558;-4.644;2022-09-21T01:00:47;8.65;;;3.38;;
64851;SDS011;56050;55.558;-4.644;2022-09-21T01:03:12;8.30;;;3.35;;
64851;SDS011;56050;55.558;-4.644;2022-09-21T01:05:38;8.38;;;3.65;;
64851;SDS011;56050;55.558;-4.644;2022-09-21T01:08:04;9.57;;;3.28;;
64851;SDS011;56050;55.558;-4.644;2022-09-21T01:10:35;10.40;;;3.08;;
64851;SDS011;56050;55.558;-4.644;2022-09-21T01:13:21;8.30;;;3.65;;
64851;SDS011;56050;55.558;-4.644;2022-09-21T01:21:18;8.02;;;3.30;;
64851;SDS011;56050;55.558;-4.644;2022-09-21T01:29:33;8.02;;;3.28;;
64851;SDS011;56050;55.558;-4.644;2022-09-21T01:32:08;9.00;;;3.15;;
64851;SDS011;56050;55.558;-4.644;2022-09-21T01:37:25;7.07;;;2.55;;
64851;SDS011;56050;55.558;-4.644;2022-09-21T01:39:59;7.32;;;3.08;;
64851;SDS011;56050;55.558;-4.644;2022-09-21T01:42:28;6.90;;;3.15;;
64851;SDS011;56050;55.558;-4.644;2022-09-21T01:44:57;8.15;;;3.25;;
64851;SDS011;56050;55.558;-4.644;2022-09-21T01:47:24;8.85;;;2.70;;
64851;SDS011;56050;55.558;-4.644;2022-09-21T01:49:53;6.97;;;2.85;;
64851;SDS011;56050;55.558;-4.644;2022-09-21T01:54:57;7.75;;;2.63;;
64851;SDS011;56050;55.558;-4.644;2022-09-21T01:57:34;6.53;;;2.65;;
64851;SDS011;56050;55.558;-4.644;2022-09-21T02:00:07;5.93;;;2.85;;
64851;SDS011;56050;55.558;-4.644;2022-09-21T02:02:48;7.63;;;2.80;;
64851;SDS011;56050;55.558;-4.644;2022-09-21T02:05:18;5.45;;;2.45;;
64851;SDS011;56050;55.558;-4.644;2022-09-21T02:07:45;6.78;;;2.58;;
64851;SDS011;56050;55.558;-4.644;2022-09-21T02:10:13;7.25;;;2.50;;
64851;SDS011;56050;55.558;-4.644;2022-09-21T02:12:42;7.65;;;3.08;;
64851;SDS011;56050;55.558;-4.644;2022-09-21T02:15:08;7.22;;;2.35;;
64851;SDS011;56050;55.558;-4.644;2022-09-21T02:17:46;6.95;;;2.67;;
64851;SDS011;56050;55.558;-4.644;2022-09-21T02:20:48;6.15;;;2.50;;
64851;SDS011;56050;55.558;-4.644;2022-09-21T02:23:22;8.48;;;3.10;;
64851;SDS011;56050;55.558;-4.644;2022-09-21T02:26:12;5.82;;;2.58;;
64851;SDS011;56050;55.558;-4.644;2022-09-21T02:32:03;8.63;;;2.88;;
64851;SDS011;56050;55.558;-4.644;2022-09-21T02:35:20;7.50;;;2.88;;
64851;SDS011;56050;55.558;-4.644;2022-09-21T02:41:03;7.93;;;2.65;;
64851;SDS011;56050;55.558;-4.644;2022-09-21T02:47:07;8.45;;;2.92;;
64851;SDS011;56050;55.558;-4.644;2022-09-21T02:49:30;9.93;;;3.50;;
64851;SDS011;56050;55.558;-4.644;2022-09-21T02:52:01;8.77;;;3.15;;
64851;SDS011;56050;55.558;-4.644;2022-09-21T02:54:32;9.88;;;3.42;;
64851;SDS011;56050;55.558;-4.644;2022-09-21T02:57:00;7.43;;;2.90;;
64851;SDS011;56050;55.558;-4.644;2022-09-21T02:59:27;8.20;;;3.95;;
64851;SDS011;56050;55.558;-4.644;2022-09-21T03:01:52;9.77;;;3.30;;
64851;SDS011;56050;55.558;-4.644;2022-09-21T03:04:19;7.35;;;3.22;;
64851;SDS011;56050;55.558;-4.644;2022-09-21T03:06:45;9.27;;;3.25;;
64851;SDS011;56050;55.558;-4.644;2022-09-21T03:09:11;8.18;;;2.72;;
64851;SDS011;56050;55.558;-4.644;2022-09-21T03:11:36;7.28;;;3.35;;
64851;SDS011;56050;55.558;-4.644;2022-09-21T03:14:02;8.13;;;3.72;;
64851;SDS011;56050;55.558;-4.644;2022-09-21T03:16:32;7.68;;;4.13;;
64851;SDS011;56050;55.558;-4.644;2022-09-21T03:18:58;7.63;;;3.33;;
64851;SDS011;56050;55.558;-4.644;2022-09-21T03:21:23;6.35;;;2.88;;
64851;SDS011;56050;55.558;-4.644;2022-09-21T03:23:48;7.30;;;3.17;;
64851;SDS011;56050;55.558;-4.644;2022-09-21T03:26:14;8.05;;;3.53;;
64851;SDS011;56050;55.558;-4.644;2022-09-21T03:28:39;7.00;;;3.00;;
64851;SDS011;56050;55.558;-4.644;2022-09-21T03:31:05;10.55;;;2.97;;
64851;SDS011;56050;55.558;-4.644;2022-09-21T03:33:31;8.40;;;2.70;;
64851;SDS011;56050;55.558;-4.644;2022-09-21T03:35:56;8.57;;;3.20;;
64851;SDS011;56050;55.558;-4.644;2022-09-21T03:38:22;7.70;;;3.17;;
64851;SDS011;56050;55.558;-4.644;2022-09-21T03:40:49;7.57;;;2.80;;
64851;SDS011;56050;55.558;-4.644;2022-09-21T03:43:15;8.88;;;3.33;;
64851;SDS011;56050;55.558;-4.644;2022-09-21T03:45:41;8.02;;;3.03;;
64851;SDS011;56050;55.558;-4.644;2022-09-21T03:48:07;6.93;;;2.97;;
64851;SDS011;56050;55.558;-4.644;2022-09-21T03:50:34;7.20;;;2.92;;
64851;SDS011;56050;55.558;-4.644;2022-09-21T03:52:59;7.10;;;2.58;;
64851;SDS011;56050;55.558;-4.644;2022-09-21T03:55:25;7.78;;;3.60;;
64851;SDS011;56050;55.558;-4.644;2022-09-21T03:57:51;8.45;;;3.50;;
64851;SDS011;56050;55.558;-4.644;2022-09-21T04:00:17;9.77;;;3.33;;
64851;SDS011;56050;55.558;-4.644;2022-09-21T04:02:43;9.75;;;3.22;;
64851;SDS011;56050;55.558;-4.644;2022-09-21T04:05:09;8.95;;;2.95;;
64851;SDS011;56050;55.558;-4.644;2022-09-21T04:07:38;7.45;;;3.20;;
64851;SDS011;56050;55.558;-4.644;2022-09-21T04:10:06;7.40;;;2.75;;
64851;SDS011;56050;55.558;-4.644;2022-09-21T04:12:37;7.07;;;3.10;;
64851;SDS011;56050;55.558;-4.644;2022-09-21T04:15:03;5.07;;;2.67;;
64851;SDS011;56050;55.558;-4.644;2022-09-21T04:17:31;8.05;;;2.67;;
64851;SDS011;56050;55.558;-4.644;2022-09-21T04:19:58;6.75;;;3.35;;
64851;SDS011;56050;55.558;-4.644;2022-09-21T04:22:23;7.03;;;2.95;;
64851;SDS011;56050;55.558;-4.644;2022-09-21T04:24:49;8.60;;;3.00;;
64851;SDS011;56050;55.558;-4.644;2022-09-21T04:27:15;7.53;;;3.22;;
64851;SDS011;56050;55.558;-4.644;2022-09-21T04:29:40;7.90;;;3.10;;
64851;SDS011;56050;55.558;-4.644;2022-09-21T04:32:06;8.77;;;3.55;;
64851;SDS011;56050;55.558;-4.644;2022-09-21T04:34:31;8.45;;;2.92;;
64851;SDS011;56050;55.558;-4.644;2022-09-21T04:36:57;6.85;;;2.92;;
64851;SDS011;56050;55.558;-4.644;2022-09-21T04:39:23;6.13;;;3.05;;
64851;SDS011;56050;55.558;-4.644;2022-09-21T04:41:49;8.13;;;2.83;;
64851;SDS011;56050;55.558;-4.644;2022-09-21T04:44:15;7.22;;;2.75;;
64851;SDS011;56050;55.558;-4.644;2022-09-21T04:46:42;7.05;;;3.17;;
64851;SDS011;56050;55.558;-4.644;2022-09-21T04:49:08;7.55;;;3.03;;
64851;SDS011;56050;55.558;-4.644;2022-09-21T04:51:34;8.18;;;3.40;;
64851;SDS011;56050;55.558;-4.644;2022-09-21T04:54:00;7.00;;;2.90;;
64851;SDS011;56050;55.558;-4.644;2022-09-21T04:56:26;10.90;;;4.32;;
64851;SDS011;56050;55.558;-4.644;2022-09-21T04:58:51;9.10;;;3.78;;
64851;SDS011;56050;55.558;-4.644;2022-09-21T05:01:16;9.23;;;3.83;;
64851;SDS011;56050;55.558;-4.644;2022-09-21T05:03:42;10.43;;;4.43;;
64851;SDS011;56050;55.558;-4.644;2022-09-21T05:06:07;13.45;;;4.68;;
64851;SDS011;56050;55.558;-4.644;2022-09-21T05:08:35;12.43;;;5.50;;
64851;SDS011;56050;55.558;-4.644;2022-09-21T05:11:19;11.65;;;5.20;;
64851;SDS011;56050;55.558;-4.644;2022-09-21T05:13:45;11.52;;;4.90;;
64851;SDS011;56050;55.558;-4.644;2022-09-21T05:16:11;12.82;;;4.30;;
64851;SDS011;56050;55.558;-4.644;2022-09-21T05:18:37;15.48;;;5.82;;
64851;SDS011;56050;55.558;-4.644;2022-09-21T05:21:03;11.75;;;4.30;;
64851;SDS011;56050;55.558;-4.644;2022-09-21T05:23:30;9.23;;;3.83;;
64851;SDS011;56050;55.558;-4.644;2022-09-21T05:25:56;11.00;;;4.05;;
64851;SDS011;56050;55.558;-4.644;2022-09-21T05:28:23;6.78;;;2.97;;
64851;SDS011;56050;55.558;-4.644;2022-09-21T05:30:57;10.98;;;3.13;;
64851;SDS011;56050;55.558;-4.644;2022-09-21T05:33:36;7.60;;;2.90;;
64851;SDS011;56050;55.558;-4.644;2022-09-21T05:39:05;8.98;;;3.30;;
64851;SDS011;56050;55.558;-4.644;2022-09-21T05:41:32;8.32;;;2.83;;
64851;SDS011;56050;55.558;-4.644;2022-09-21T05:43:58;11.63;;;3.40;;
64851;SDS011;56050;55.558;-4.644;2022-09-21T05:49:02;7.03;;;3.45;;
64851;SDS011;56050;55.558;-4.644;2022-09-21T06:00:17;7.30;;;2.85;;
64851;SDS011;56050;55.558;-4.644;2022-09-21T06:05:41;8.13;;;3.45;;
64851;SDS011;56050;55.558;-4.644;2022-09-21T06:08:07;8.13;;;3.13;;
64851;SDS011;56050;55.558;-4.644;2022-09-21T06:10:33;7.57;;;2.53;;
64851;SDS011;56050;55.558;-4.644;2022-09-21T06:12:59;8.02;;;2.72;;
64851;SDS011;56050;55.558;-4.644;2022-09-21T06:15:24;7.25;;;3.70;;
64851;SDS011;56050;55.558;-4.644;2022-09-21T06:17:50;6.35;;;2.83;;
64851;SDS011;56050;55.558;-4.644;2022-09-21T06:20:16;6.97;;;2.95;;
64851;SDS011;56050;55.558;-4.644;2022-09-21T06:22:42;5.57;;;2.50;;
64851;SDS011;56050;55.558;-4.644;2022-09-21T06:25:07;9.05;;;3.65;;
64851;SDS011;56050;55.558;-4.644;2022-09-21T06:27:33;7.72;;;2.97;;
64851;SDS011;56050;55.558;-4.644;2022-09-21T06:29:59;8.88;;;3.55;;
64851;SDS011;56050;55.558;-4.644;2022-09-21T06:32:24;9.57;;;3.50;;
64851;SDS011;56050;55.558;-4.644;2022-09-21T06:34:50;9.05;;;2.92;;
64851;SDS011;56050;55.558;-4.644;2022-09-21T06:37:15;7.25;;;3.28;;
64851;SDS011;56050;55.558;-4.644;2022-09-21T06:39:41;7.53;;;2.75;;
64851;SDS011;56050;55.558;-4.644;2022-09-21T06:42:06;6.55;;;2.80;;
64851;SDS011;56050;55.558;-4.644;2022-09-21T06:44:32;7.78;;;2.78;;
64851;SDS011;56050;55.558;-4.644;2022-09-21T06:46:57;7.40;;;3.15;;
64851;SDS011;56050;55.558;-4.644;2022-09-21T06:49:23;9.55;;;3.28;;
64851;SDS011;56050;55.558;-4.644;2022-09-21T06:51:48;9.43;;;4.60;;
64851;SDS011;56050;55.558;-4.644;2022-09-21T06:54:13;7.47;;;3.35;;
64851;SDS011;56050;55.558;-4.644;2022-09-21T06:56:39;7.78;;;3.95;;
64851;SDS011;56050;55.558;-4.644;2022-09-21T06:59:07;6.85;;;3.47;;
64851;SDS011;56050;55.558;-4.644;2022-09-21T07:01:33;6.15;;;2.83;;
64851;SDS011;56050;55.558;-4.644;2022-09-21T07:03:58;9.40;;;3.28;;
64851;SDS011;56050;55.558;-4.644;2022-09-21T07:06:23;8.10;;;3.22;;
64851;SDS011;56050;55.558;-4.644;2022-09-21T07:08:52;9.80;;;3.75;;
64851;SDS011;56050;55.558;-4.644;2022-09-21T07:11:18;8.25;;;3.60;;
64851;SDS011;56050;55.558;-4.644;2022-09-21T07:13:43;10.02;;;3.05;;
64851;SDS011;56050;55.558;-4.644;2022-09-21T07:16:09;9.43;;;3.67;;
64851;SDS011;56050;55.558;-4.644;2022-09-21T07:18:36;9.38;;;3.35;;
64851;SDS011;56050;55.558;-4.644;2022-09-21T07:21:04;9.07;;;4.03;;
64851;SDS011;56050;55.558;-4.644;2022-09-21T07:23:31;8.93;;;3.83;;
64851;SDS011;56050;55.558;-4.644;2022-09-21T07:26:00;11.70;;;4.82;;
64851;SDS011;56050;55.558;-4.644;2022-09-21T07:28:28;12.63;;;5.25;;
64851;SDS011;56050;55.558;-4.644;2022-09-21T07:30:54;15.10;;;6.53;;
64851;SDS011;56050;55.558;-4.644;2022-09-21T07:33:21;12.40;;;5.35;;
64851;SDS011;56050;55.558;-4.644;2022-09-21T07:35:51;16.27;;;5.97;;
64851;SDS011;56050;55.558;-4.644;2022-09-21T07:38:18;11.82;;;5.63;;
64851;SDS011;56050;55.558;-4.644;2022-09-21T07:40:44;11.10;;;4.88;;
64851;SDS011;56050;55.558;-4.644;2022-09-21T07:43:09;9.48;;;4.35;;
64851;SDS011;56050;55.558;-4.644;2022-09-21T07:45:35;8.15;;;4.10;;
64851;SDS011;56050;55.558;-4.644;2022-09-21T07:48:01;10.25;;;4.78;;
64851;SDS011;56050;55.558;-4.644;2022-09-21T07:50:30;9.25;;;4.32;;
64851;SDS011;56050;55.558;-4.644;2022-09-21T07:52:58;10.10;;;4.45;;
64851;SDS011;56050;55.558;-4.644;2022-09-21T07:55:23;12.02;;;4.72;;
64851;SDS011;56050;55.558;-4.644;2022-09-21T07:57:49;8.48;;;3.90;;
64851;SDS011;56050;55.558;-4.644;2022-09-21T08:00:33;8.73;;;3.55;;
64851;SDS011;56050;55.558;-4.644;2022-09-21T08:02:59;8.93;;;3.53;;
64851;SDS011;56050;55.558;-4.644;2022-09-21T08:05:25;8.15;;;3.78;;
64851;SDS011;56050;55.558;-4.644;2022-09-21T08:07:53;7.70;;;3.30;;
64851;SDS011;56050;55.558;-4.644;2022-09-21T08:10:20;8.23;;;3.83;;
64851;SDS011;56050;55.558;-4.644;2022-09-21T08:12:46;6.93;;;2.97;;
64851;SDS011;56050;55.558;-4.644;2022-09-21T08:15:12;9.35;;;3.47;;
64851;SDS011;56050;55.558;-4.644;2022-09-21T08:17:38;7.88;;;3.10;;
64851;SDS011;56050;55.558;-4.644;2022-09-21T08:20:04;7.40;;;3.60;;
64851;SDS011;56050;55.558;-4.644;2022-09-21T08:22:30;7.72;;;3.35;;
64851;SDS011;56050;55.558;-4.644;2022-09-21T08:24:55;9.38;;;3.70;;
64851;SDS011;56050;55.558;-4.644;2022-09-21T08:27:21;8.60;;;3.42;;
64851;SDS011;56050;55.558;-4.644;2022-09-21T08:29:47;6.65;;;3.35;;
64851;SDS011;56050;55.558;-4.644;2022-09-21T08:32:12;6.60;;;2.58;;
64851;SDS011;56050;55.558;-4.644;2022-09-21T08:34:38;5.85;;;2.45;;
64851;SDS011;56050;55.558;-4.644;2022-09-21T08:37:03;6.72;;;3.35;;
64851;SDS011;56050;55.558;-4.644;2022-09-21T08:39:29;6.90;;;3.15;;
64851;SDS011;56050;55.558;-4.644;2022-09-21T08:44:23;6.60;;;2.33;;
64851;SDS011;56050;55.558;-4.644;2022-09-21T08:47:55;4.90;;;2.30;;
64851;SDS011;56050;55.558;-4.644;2022-09-21T08:49:59;9.98;;;3.28;;
64851;SDS011;56050;55.558;-4.644;2022-09-21T08:52:27;4.78;;;2.17;;
64851;SDS011;56050;55.558;-4.644;2022-09-21T08:54:54;5.03;;;3.35;;
64851;SDS011;56050;55.558;-4.644;2022-09-21T08:57:31;4.70;;;2.13;;
64851;SDS011;56050;55.558;-4.644;2022-09-21T08:59:58;6.45;;;1.88;;
64851;SDS011;56050;55.558;-4.644;2022-09-21T09:02:44;8.32;;;1.90;;
64851;SDS011;56050;55.558;-4.644;2022-09-21T09:05:44;4.72;;;1.85;;
64851;SDS011;56050;55.558;-4.644;2022-09-21T09:20:06;4.45;;;1.83;;
64851;SDS011;56050;55.558;-4.644;2022-09-21T09:22:41;4.10;;;1.63;;
64851;SDS011;56050;55.558;-4.644;2022-09-21T09:25:22;5.93;;;1.63;;
64851;SDS011;56050;55.558;-4.644;2022-09-21T09:27:54;6.32;;;1.60;;
64851;SDS011;56050;55.558;-4.644;2022-09-21T09:30:26;4.60;;;3.45;;
64851;SDS011;56050;55.558;-4.644;2022-09-21T09:35:52;5.85;;;2.15;;
64851;SDS011;56050;55.558;-4.644;2022-09-21T09:49:07;6.43;;;1.88;;
64851;SDS011;56050;55.558;-4.644;2022-09-21T09:51:55;3.80;;;1.40;;
64851;SDS011;56050;55.558;-4.644;2022-09-21T09:54:22;5.60;;;1.85;;
64851;SDS011;56050;55.558;-4.644;2022-09-21T09:56:50;2.92;;;1.48;;
64851;SDS011;56050;55.558;-4.644;2022-09-21T10:02:00;5.63;;;1.35;;
64851;SDS011;56050;55.558;-4.644;2022-09-21T10:04:28;3.65;;;2.83;;
64851;SDS011;56050;55.558;-4.644;2022-09-21T10:06:54;4.63;;;1.67;;
64851;SDS011;56050;55.558;-4.644;2022-09-21T10:09:30;4.68;;;1.98;;
64851;SDS011;56050;55.558;-4.644;2022-09-21T10:12:02;5.13;;;2.42;;
64851;SDS011;56050;55.558;-4.644;2022-09-21T10:14:50;5.13;;;1.23;;
64851;SDS011;56050;55.558;-4.644;2022-09-21T10:17:17;3.38;;;1.10;;
64851;SDS011;56050;55.558;-4.644;2022-09-21T10:19:44;4.10;;;1.52;;
64851;SDS011;56050;55.558;-4.644;2022-09-21T10:22:19;4.30;;;1.75;;
64851;SDS011;56050;55.558;-4.644;2022-09-21T10:24:50;4.90;;;1.65;;
64851;SDS011;56050;55.558;-4.644;2022-09-21T10:27:24;4.50;;;1.77;;
64851;SDS011;56050;55.558;-4.644;2022-09-21T10:29:52;4.05;;;1.63;;
64851;SDS011;56050;55.558;-4.644;2022-09-21T10:32:20;5.07;;;1.33;;
64851;SDS011;56050;55.558;-4.644;2022-09-21T10:37:36;7.35;;;1.38;;
64851;SDS011;56050;55.558;-4.644;2022-09-21T10:42:49;4.35;;;1.40;;
64851;SDS011;56050;55.558;-4.644;2022-09-21T10:45:18;6.93;;;1.80;;
64851;SDS011;56050;55.558;-4.644;2022-09-21T10:47:49;6.53;;;2.60;;
64851;SDS011;56050;55.558;-4.644;2022-09-21T10:52:48;5.28;;;1.83;;
64851;SDS011;56050;55.558;-4.644;2022-09-21T10:55:16;5.22;;;1.73;;
64851;SDS011;56050;55.558;-4.644;2022-09-21T10:57:43;5.15;;;1.90;;
64851;SDS011;56050;55.558;-4.644;2022-09-21T11:00:32;4.90;;;3.08;;
64851;SDS011;56050;55.558;-4.644;2022-09-21T11:03:02;5.88;;;3.88;;
64851;SDS011;56050;55.558;-4.644;2022-09-21T11:05:50;7.47;;;1.75;;
64851;SDS011;56050;55.558;-4.644;2022-09-21T11:08:40;5.00;;;2.33;;
64851;SDS011;56050;55.558;-4.644;2022-09-21T11:19:44;5.60;;;1.50;;
64851;SDS011;56050;55.558;-4.644;2022-09-21T11:28:15;4.65;;;1.70;;
64851;SDS011;56050;55.558;-4.644;2022-09-21T11:33:21;5.45;;;3.30;;
64851;SDS011;56050;55.558;-4.644;2022-09-21T11:38:38;5.47;;;1.80;;
64851;SDS011;56050;55.558;-4.644;2022-09-21T11:47:02;5.35;;;2.13;;
64851;SDS011;56050;55.558;-4.644;2022-09-21T12:00:27;7.32;;;2.05;;
64851;SDS011;56050;55.558;-4.644;2022-09-21T12:19:44;6.35;;;1.77;;
64851;SDS011;56050;55.558;-4.644;2022-09-21T12:22:25;5.35;;;2.45;;
64851;SDS011;56050;55.558;-4.644;2022-09-21T12:24:55;7.93;;;1.98;;
64851;SDS011;56050;55.558;-4.644;2022-09-21T12:30:02;6.05;;;1.85;;
64851;SDS011;56050;55.558;-4.644;2022-09-21T12:35:12;7.57;;;2.60;;
64851;SDS011;56050;55.558;-4.644;2022-09-21T12:37:44;6.47;;;4.10;;
64851;SDS011;56050;55.558;-4.644;2022-09-21T12:50:52;7.95;;;3.05;;
64851;SDS011;56050;55.558;-4.644;2022-09-21T12:53:22;6.90;;;3.70;;
64851;SDS011;56050;55.558;-4.644;2022-09-21T13:09:46;5.80;;;2.72;;
64851;SDS011;56050;55.558;-4.644;2022-09-21T13:12:17;6.60;;;2.13;;
64851;SDS011;56050;55.558;-4.644;2022-09-21T13:14:47;5.85;;;2.13;;
64851;SDS011;56050;55.558;-4.644;2022-09-21T13:17:21;7.60;;;2.15;;
64851;SDS011;56050;55.558;-4.644;2022-09-21T13:34:04;5.93;;;2.60;;
64851;SDS011;56050;55.558;-4.644;2022-09-21T13:36:03;5.68;;;2.15;;
64851;SDS011;56050;55.558;-4.644;2022-09-21T13:49:12;4.90;;;2.63;;
64851;SDS011;56050;55.558;-4.644;2022-09-21T13:55:14;4.10;;;1.25;;
64851;SDS011;56050;55.558;-4.644;2022-09-21T14:07:53;4.10;;;1.35;;
64851;SDS011;56050;55.558;-4.644;2022-09-21T14:10:24;4.57;;;2.47;;
64851;SDS011;56050;55.558;-4.644;2022-09-21T14:12:51;5.25;;;1.50;;
64851;SDS011;56050;55.558;-4.644;2022-09-21T14:17:43;6.65;;;1.60;;
64851;SDS011;56050;55.558;-4.644;2022-09-21T14:22:49;4.93;;;1.25;;
64851;SDS011;56050;55.558;-4.644;2022-09-21T14:28:44;3.95;;;1.58;;
64851;SDS011;56050;55.558;-4.644;2022-09-21T14:31:17;5.10;;;2.50;;
64851;SDS011;56050;55.558;-4.644;2022-09-21T14:33:55;2.67;;;0.82;;
64851;SDS011;56050;55.558;-4.644;2022-09-21T14:36:30;3.15;;;1.20;;
64851;SDS011;56050;55.558;-4.644;2022-09-21T14:39:03;3.38;;;0.98;;
64851;SDS011;56050;55.558;-4.644;2022-09-21T14:41:36;3.92;;;0.80;;
64851;SDS011;56050;55.558;-4.644;2022-09-21T14:44:04;2.90;;;2.28;;
64851;SDS011;56050;55.558;-4.644;2022-09-21T14:51:52;2.33;;;0.77;;
64851;SDS011;56050;55.558;-4.644;2022-09-21T15:11:07;3.42;;;1.00;;
64851;SDS011;56050;55.558;-4.644;2022-09-21T15:16:43;1.60;;;1.23;;
64851;SDS011;56050;55.558;-4.644;2022-09-21T15:21:55;3.33;;;1.20;;
64851;SDS011;56050;55.558;-4.644;2022-09-21T15:24:34;2.55;;;0.90;;
64851;SDS011;56050;55.558;-4.644;2022-09-21T15:27:04;2.38;;;0.77;;
64851;SDS011;56050;55.558;-4.644;2022-09-21T15:29:48;4.43;;;0.88;;
64851;SDS011;56050;55.558;-4.644;2022-09-21T15:34:59;2.67;;;0.70;;
64851;SDS011;56050;55.558;-4.644;2022-09-21T15:37:26;3.45;;;0.70;;
64851;SDS011;56050;55.558;-4.644;2022-09-21T15:40:04;3.95;;;2.13;;
64851;SDS011;56050;55.558;-4.644;2022-09-21T15:42:40;2.88;;;1.13;;
64851;SDS011;56050;55.558;-4.644;2022-09-21T15:45:29;3.78;;;2.13;;
64851;SDS011;56050;55.558;-4.644;2022-09-21T15:48:01;2.55;;;0.60;;
64851;SDS011;56050;55.558;-4.644;2022-09-21T15:50:30;2.92;;;2.33;;
64851;SDS011;56050;55.558;-4.644;2022-09-21T15:53:04;3.17;;;1.60;;
64851;SDS011;56050;55.558;-4.644;2022-09-21T15:55:38;3.28;;;1.55;;
64851;SDS011;56050;55.558;-4.644;2022-09-21T15:58:05;3.92;;;0.68;;
64851;SDS011;56050;55.558;-4.644;2022-09-21T16:00:59;3.30;;;1.42;;
64851;SDS011;56050;55.558;-4.644;2022-09-21T16:03:26;3.22;;;1.15;;
64851;SDS011;56050;55.558;-4.644;2022-09-21T16:05:53;4.88;;;1.30;;
64851;SDS011;56050;55.558;-4.644;2022-09-21T16:11:15;2.47;;;0.80;;
64851;SDS011;56050;55.558;-4.644;2022-09-21T16:13:44;2.70;;;0.70;;
64851;SDS011;56050;55.558;-4.644;2022-09-21T16:16:29;3.40;;;0.98;;
64851;SDS011;56050;55.558;-4.644;2022-09-21T16:18:56;4.40;;;2.15;;
64851;SDS011;56050;55.558;-4.644;2022-09-21T16:21:25;3.53;;;0.93;;
64851;SDS011;56050;55.558;-4.644;2022-09-21T16:23:54;3.40;;;1.08;;
64851;SDS011;56050;55.558;-4.644;2022-09-21T16:26:24;2.50;;;0.90;;
64851;SDS011;56050;55.558;-4.644;2022-09-21T16:28:57;2.17;;;1.02;;
64851;SDS011;56050;55.558;-4.644;2022-09-21T16:31:41;2.85;;;0.98;;
64851;SDS011;56050;55.558;-4.644;2022-09-21T16:37:41;4.05;;;2.53;;
64851;SDS011;56050;55.558;-4.644;2022-09-21T16:40:00;1.98;;;0.88;;
64851;SDS011;56050;55.558;-4.644;2022-09-21T16:42:26;3.05;;;1.13;;
64851;SDS011;56050;55.558;-4.644;2022-09-21T16:44:56;3.80;;;2.20;;
64851;SDS011;56050;55.558;-4.644;2022-09-21T16:47:23;3.00;;;0.95;;
64851;SDS011;56050;55.558;-4.644;2022-09-21T16:50:00;2.55;;;1.10;;
64851;SDS011;56050;55.558;-4.644;2022-09-21T16:52:26;2.55;;;1.10;;
64851;SDS011;56050;55.558;-4.644;2022-09-21T16:54:53;4.47;;;1.10;;
64851;SDS011;56050;55.558;-4.644;2022-09-21T16:57:20;3.08;;;0.98;;
64851;SDS011;56050;55.558;-4.644;2022-09-21T16:59:46;2.85;;;2.15;;
64851;SDS011;56050;55.558;-4.644;2022-09-21T17:02:13;3.55;;;0.90;;
64851;SDS011;56050;55.558;-4.644;2022-09-21T17:04:39;4.18;;;1.23;;
64851;SDS011;56050;55.558;-4.644;2022-09-21T17:07:05;4.22;;;1.25;;
64851;SDS011;56050;55.558;-4.644;2022-09-21T17:09:31;2.33;;;0.80;;
64851;SDS011;56050;55.558;-4.644;2022-09-21T17:11:59;4.70;;;1.33;;
64851;SDS011;56050;55.558;-4.644;2022-09-21T17:14:30;4.43;;;0.68;;
64851;SDS011;56050;55.558;-4.644;2022-09-21T17:16:58;4.60;;;1.35;;
64851;SDS011;56050;55.558;-4.644;2022-09-21T17:19:28;2.55;;;1.25;;
64851;SDS011;56050;55.558;-4.644;2022-09-21T17:21:53;2.58;;;1.17;;
64851;SDS011;56050;55.558;-4.644;2022-09-21T17:24:19;2.45;;;0.70;;
64851;SDS011;56050;55.558;-4.644;2022-09-21T17:26:44;3.72;;;1.10;;
64851;SDS011;56050;55.558;-4.644;2022-09-21T17:29:20;4.45;;;0.88;;
64851;SDS011;56050;55.558;-4.644;2022-09-21T17:31:50;5.03;;;1.65;;
64851;SDS011;56050;55.558;-4.644;2022-09-21T17:34:17;5.05;;;1.65;;
64851;SDS011;56050;55.558;-4.644;2022-09-21T17:36:45;2.17;;;0.98;;
64851;SDS011;56050;55.558;-4.644;2022-09-21T17:39:10;3.05;;;2.22;;
64851;SDS011;56050;55.558;-4.644;2022-09-21T17:41:48;3.92;;;1.23;;
64851;SDS011;56050;55.558;-4.644;2022-09-21T17:44:33;3.65;;;1.00;;
64851;SDS011;56050;55.558;-4.644;2022-09-21T17:47:19;5.28;;;2.03;;
64851;SDS011;56050;55.558;-4.644;2022-09-21T17:49:52;3.15;;;0.88;;
64851;SDS011;56050;55.558;-4.644;2022-09-21T17:52:19;3.60;;;0.85;;
64851;SDS011;56050;55.558;-4.644;2022-09-21T17:55:05;4.00;;;1.33;;
64851;SDS011;56050;55.558;-4.644;2022-09-21T17:57:51;4.47;;;0.90;;
64851;SDS011;56050;55.558;-4.644;2022-09-21T18:03:18;5.55;;;1.30;;
64851;SDS011;56050;55.558;-4.644;2022-09-21T18:05:47;4.82;;;1.08;;
64851;SDS011;56050;55.558;-4.644;2022-09-21T18:08:14;3.97;;;1.30;;
64851;SDS011;56050;55.558;-4.644;2022-09-21T18:10:41;4.95;;;1.42;;
64851;SDS011;56050;55.558;-4.644;2022-09-21T18:15:55;3.08;;;1.38;;
64851;SDS011;56050;55.558;-4.644;2022-09-21T18:21:20;5.13;;;1.20;;
64851;SDS011;56050;55.558;-4.644;2022-09-21T18:23:59;4.80;;;1.05;;
64851;SDS011;56050;55.558;-4.644;2022-09-21T18:26:31;6.97;;;1.00;;
64851;SDS011;56050;55.558;-4.644;2022-09-21T18:28:59;4.53;;;1.60;;
64851;SDS011;56050;55.558;-4.644;2022-09-21T18:31:31;3.05;;;1.00;;
64851;SDS011;56050;55.558;-4.644;2022-09-21T18:39:46;7.30;;;1.65;;
64851;SDS011;56050;55.558;-4.644;2022-09-21T18:50:19;3.45;;;2.42;;
64851;SDS011;56050;55.558;-4.644;2022-09-21T18:55:45;4.88;;;0.90;;
64851;SDS011;56050;55.558;-4.644;2022-09-21T18:58:11;5.80;;;1.55;;
64851;SDS011;56050;55.558;-4.644;2022-09-21T19:00:37;5.38;;;1.83;;
64851;SDS011;56050;55.558;-4.644;2022-09-21T19:03:04;3.35;;;1.10;;
64851;SDS011;56050;55.558;-4.644;2022-09-21T19:05:35;6.80;;;1.67;;
64851;SDS011;56050;55.558;-4.644;2022-09-21T19:08:10;4.63;;;1.67;;
64851;SDS011;56050;55.558;-4.644;2022-09-21T19:19:55;5.45;;;1.65;;
64851;SDS011;56050;55.558;-4.644;2022-09-21T19:25:28;4.55;;;1.85;;
64851;SDS011;56050;55.558;-4.644;2022-09-21T19:28:01;4.70;;;1.73;;
64851;SDS011;56050;55.558;-4.644;2022-09-21T19:30:48;7.25;;;2.67;;
64851;SDS011;56050;55.558;-4.644;2022-09-21T19:33:23;5.20;;;1.77;;
64851;SDS011;56050;55.558;-4.644;2022-09-21T19:35:53;3.50;;;1.23;;